createdAt,value
2022-11-24T00:01:31.787Z,7.60
2022-11-24T00:04:01.383Z,7.50
2022-11-24T00:06:32.218Z,7.50
2022-11-24T00:09:01.184Z,7.50
2022-11-24T00:11:31.259Z,7.50
2022-11-24T00:14:03.225Z,7.50
2022-11-24T00:16:34.193Z,7.50
2022-11-24T00:19:04.088Z,7.50
2022-11-24T00:21:34.362Z,7.40
2022-11-24T00:24:02.564Z,7.40
2022-11-24T00:26:32.865Z,7.50
2022-11-24T00:29:02.992Z,7.40
2022-11-24T00:31:32.805Z,7.50
2022-11-24T00:34:04.332Z,7.50
2022-11-24T00:36:35.574Z,7.50
2022-11-24T00:39:06.738Z,7.50
2022-11-24T00:41:35.153Z,7.50
2022-11-24T00:44:03.531Z,7.50
2022-11-24T00:46:31.912Z,7.50
2022-11-24T00:49:00.606Z,7.50
2022-11-24T00:51:30.465Z,7.50
2022-11-24T00:54:01.674Z,7.50
2022-11-24T00:56:30.878Z,7.50
2022-11-24T00:58:59.173Z,7.40
2022-11-24T01:01:30.252Z,7.40
2022-11-24T01:04:01.389Z,7.40
2022-11-24T01:06:31.055Z,7.40
2022-11-24T01:09:00.753Z,7.40
2022-11-24T01:11:51.729Z,7.30
2022-11-24T01:14:20.974Z,7.40
2022-11-24T01:16:49.173Z,7.40
2022-11-24T01:19:17.965Z,7.50
2022-11-24T01:21:46.575Z,7.50
2022-11-24T01:24:16.647Z,7.50
2022-11-24T01:26:45.049Z,7.60
2022-11-24T01:29:13.317Z,7.60
2022-11-24T01:31:41.837Z,7.60
2022-11-24T01:34:10.036Z,7.60
2022-11-24T01:36:38.171Z,7.60
2022-11-24T01:39:06.470Z,7.60
2022-11-24T01:41:36.573Z,7.60
2022-11-24T01:44:24.335Z,7.60
2022-11-24T01:46:56.716Z,7.60
2022-11-24T01:49:28.170Z,7.60
2022-11-24T01:52:00.788Z,7.60
2022-11-24T01:54:32.833Z,7.60
2022-11-24T01:57:09.233Z,7.60
2022-11-24T01:59:38.178Z,7.60
2022-11-24T02:02:06.513Z,7.60
2022-11-24T02:04:36.487Z,7.60
2022-11-24T02:07:07.580Z,7.60
2022-11-24T02:09:42.284Z,7.60
2022-11-24T02:12:12.646Z,7.60
2022-11-24T02:14:43.287Z,7.60
2022-11-24T02:17:11.391Z,7.60
2022-11-24T02:19:55.493Z,7.60
2022-11-24T02:22:30.937Z,7.60
2022-11-24T02:25:04.596Z,7.50
2022-11-24T02:27:34.635Z,7.50
2022-11-24T02:30:03.252Z,7.50
2022-11-24T02:32:33.441Z,7.50
2022-11-24T02:35:02.688Z,7.50
2022-11-24T02:37:30.969Z,7.50
2022-11-24T02:39:59.277Z,7.50
2022-11-24T02:42:29.491Z,7.50
2022-11-24T02:45:03.156Z,7.50
2022-11-24T02:47:31.281Z,7.50
2022-11-24T02:49:59.496Z,7.50
2022-11-24T02:52:27.478Z,7.50
2022-11-24T02:54:55.731Z,7.50
2022-11-24T02:57:24.074Z,7.50
2022-11-24T02:59:52.124Z,7.50
2022-11-24T03:02:22.184Z,7.50
2022-11-24T03:04:50.600Z,7.50
2022-11-24T03:07:19.263Z,7.50
2022-11-24T03:09:47.579Z,7.50
2022-11-24T03:12:15.688Z,7.50
2022-11-24T03:14:44.473Z,7.50
2022-11-24T03:17:12.820Z,7.50
2022-11-24T03:19:42.530Z,7.40
2022-11-24T03:22:10.978Z,7.50
2022-11-24T03:24:39.181Z,7.40
2022-11-24T03:27:07.095Z,7.40
2022-11-24T03:29:35.521Z,7.40
2022-11-24T03:32:03.780Z,7.40
2022-11-24T03:34:32.298Z,7.40
2022-11-24T03:37:04.538Z,7.40
2022-11-24T03:39:32.653Z,7.40
2022-11-24T03:42:00.873Z,7.60
2022-11-24T03:44:29.126Z,7.40
2022-11-24T03:46:57.671Z,7.30
2022-11-24T03:49:26.110Z,7.30
2022-11-24T03:51:54.461Z,7.30
2022-11-24T03:54:25.641Z,7.30
2022-11-24T03:56:54.065Z,7.30
2022-11-24T03:59:22.537Z,7.30
2022-11-24T04:01:51.066Z,7.40
2022-11-24T04:04:19.194Z,7.30
2022-11-24T04:06:47.476Z,7.40
2022-11-24T04:09:15.460Z,7.40
2022-11-24T04:12:02.256Z,7.40
2022-11-24T04:14:30.459Z,7.40
2022-11-24T04:16:58.670Z,7.50
2022-11-24T04:19:26.966Z,7.50
2022-11-24T04:21:55.196Z,7.50
2022-11-24T04:24:23.531Z,7.50
2022-11-24T04:26:53.349Z,7.60
2022-11-24T04:29:21.356Z,7.60
2022-11-24T04:31:49.364Z,7.60
2022-11-24T04:34:17.628Z,7.60
2022-11-24T04:36:45.728Z,7.70
2022-11-24T04:39:25.819Z,7.70
2022-11-24T04:41:58.004Z,7.80
2022-11-24T04:44:26.329Z,7.90
2022-11-24T04:46:54.629Z,7.90
2022-11-24T04:49:23.029Z,8.00
2022-11-24T04:51:51.404Z,8.00
2022-11-24T04:54:19.570Z,8.00
2022-11-24T04:56:51.955Z,8.00
2022-11-24T04:59:21.459Z,8.00
2022-11-24T05:01:49.574Z,8.10
2022-11-24T05:04:20.603Z,8.10
2022-11-24T05:06:48.603Z,8.00
2022-11-24T05:09:17.934Z,8.10
2022-11-24T05:11:45.230Z,8.10
2022-11-24T05:14:14.452Z,8.10
2022-11-24T05:16:44.177Z,8.10
2022-11-24T05:19:13.032Z,8.10
2022-11-24T05:21:41.264Z,8.20
2022-11-24T05:24:10.356Z,8.20
2022-11-24T05:26:38.614Z,8.20
2022-11-24T05:29:06.732Z,8.20
2022-11-24T05:31:34.971Z,8.20
2022-11-24T05:34:04.501Z,8.20
2022-11-24T05:36:49.910Z,8.20
2022-11-24T05:39:18.134Z,8.20
2022-11-24T05:41:46.562Z,8.30
2022-11-24T05:44:15.121Z,8.20
2022-11-24T05:46:43.293Z,8.30
2022-11-24T05:49:13.022Z,8.30
2022-11-24T05:51:41.040Z,8.30
2022-11-24T05:54:09.022Z,8.30
2022-11-24T05:56:37.287Z,8.30
2022-11-24T05:59:09.566Z,8.30
2022-11-24T06:01:38.385Z,8.30
2022-11-24T06:04:06.720Z,8.40
2022-11-24T06:06:36.389Z,8.40
2022-11-24T06:09:04.908Z,8.40
2022-11-24T06:11:33.126Z,8.40
2022-11-24T06:14:04.726Z,8.40
2022-11-24T06:16:36.643Z,8.30
2022-11-24T06:19:04.686Z,8.40
2022-11-24T06:21:33.151Z,8.40
2022-11-24T06:24:02.945Z,8.40
2022-11-24T06:26:31.692Z,8.40
2022-11-24T06:28:59.763Z,8.40
2022-11-24T06:31:27.976Z,8.40
2022-11-24T06:33:57.114Z,8.40
2022-11-24T06:36:25.580Z,8.40
2022-11-24T06:38:53.708Z,8.50
2022-11-24T06:41:23.413Z,8.50
2022-11-24T06:43:51.700Z,8.50
2022-11-24T06:46:20.983Z,8.50
2022-11-24T06:48:49.318Z,8.50
2022-11-24T06:51:18.897Z,8.50
2022-11-24T06:53:47.349Z,8.50
2022-11-24T06:56:19.358Z,8.50
2022-11-24T06:58:50.723Z,8.50
2022-11-24T07:01:21.085Z,8.50
2022-11-24T07:03:49.758Z,8.50
2022-11-24T07:06:18.714Z,8.50
2022-11-24T07:08:47.403Z,8.50
2022-11-24T07:11:17.210Z,8.50
2022-11-24T07:13:46.425Z,8.50
2022-11-24T07:16:18.756Z,8.40
2022-11-24T07:18:48.146Z,8.40
2022-11-24T07:21:16.649Z,8.40
2022-11-24T07:23:45.233Z,8.40
2022-11-24T07:26:13.433Z,8.40
2022-11-24T07:28:41.512Z,8.40
2022-11-24T07:31:11.171Z,8.40
2022-11-24T07:33:41.003Z,8.40
2022-11-24T07:36:10.343Z,8.40
2022-11-24T07:38:38.558Z,8.40
2022-11-24T07:41:08.796Z,8.40
2022-11-24T07:43:38.152Z,8.40
2022-11-24T07:46:07.881Z,8.40
2022-11-24T07:48:36.420Z,8.30
2022-11-24T07:51:06.850Z,8.30
2022-11-24T07:53:35.560Z,8.30
2022-11-24T07:56:06.227Z,8.30
2022-11-24T07:58:36.459Z,8.40
2022-11-24T08:01:12.161Z,8.40
2022-11-24T08:03:40.641Z,8.40
2022-11-24T08:06:31.716Z,8.30
2022-11-24T08:09:00.234Z,8.30
2022-11-24T08:11:31.587Z,8.40
2022-11-24T08:13:59.674Z,8.30
2022-11-24T08:16:27.700Z,8.40
2022-11-24T08:18:57.164Z,8.50
2022-11-24T08:21:27.097Z,8.50
2022-11-24T08:23:56.908Z,8.40
2022-11-24T08:26:25.772Z,8.50
2022-11-24T08:28:56.851Z,8.50
2022-11-24T08:31:27.550Z,8.50
2022-11-24T08:33:57.424Z,8.50
2022-11-24T08:36:27.375Z,8.40
2022-11-24T08:38:57.369Z,8.40
2022-11-24T08:41:26.994Z,8.40
2022-11-24T08:43:55.760Z,8.50
2022-11-24T08:46:24.293Z,8.50
2022-11-24T08:48:53.948Z,8.50
2022-11-24T08:51:24.128Z,8.50
2022-11-24T08:53:56.302Z,8.60
2022-11-24T08:56:25.303Z,8.50
2022-11-24T08:58:54.111Z,8.40
2022-11-24T09:01:22.880Z,8.40
2022-11-24T09:03:52.310Z,8.30
2022-11-24T09:06:23.463Z,8.30
2022-11-24T09:08:54.654Z,8.40
2022-11-24T09:11:23.733Z,8.50
2022-11-24T09:13:52.910Z,8.60
2022-11-24T09:16:22.517Z,8.60
2022-11-24T09:18:56.873Z,8.60
2022-11-24T09:21:25.838Z,8.60
2022-11-24T09:23:57.154Z,8.60
2022-11-24T09:26:27.328Z,8.70
2022-11-24T09:28:57.357Z,8.70
2022-11-24T09:31:30.096Z,8.70
2022-11-24T09:33:59.493Z,8.70
2022-11-24T09:36:28.105Z,8.80
2022-11-24T09:38:57.869Z,8.80
2022-11-24T09:42:06.341Z,8.90
2022-11-24T09:45:01.297Z,9.00
2022-11-24T09:47:39.785Z,9.10
2022-11-24T09:50:14.294Z,9.10
2022-11-24T09:52:51.928Z,9.00
2022-11-24T09:55:47.435Z,9.10
2022-11-24T09:58:39.882Z,9.10
2022-11-24T10:01:15.778Z,9.20
2022-11-24T10:03:46.322Z,9.40
2022-11-24T10:06:22.942Z,9.50
2022-11-24T10:09:14.103Z,9.60
2022-11-24T10:11:48.013Z,9.70
2022-11-24T10:14:39.305Z,9.70
2022-11-24T10:17:21.693Z,9.70
2022-11-24T10:19:55.133Z,9.80
2022-11-24T10:22:40.196Z,9.80
2022-11-24T10:25:14.306Z,9.70
2022-11-24T10:27:47.425Z,9.70
2022-11-24T10:30:18.984Z,9.60
2022-11-24T10:32:49.913Z,9.60
2022-11-24T10:35:21.870Z,9.60
2022-11-24T10:37:59.462Z,9.70
2022-11-24T10:43:27.188Z,10.00
2022-11-24T10:45:56.400Z,10.20
2022-11-24T10:48:27.184Z,10.30
2022-11-24T10:51:02.349Z,10.50
2022-11-24T10:53:32.544Z,10.50
2022-11-24T10:56:03.736Z,10.50
2022-11-24T10:58:38.077Z,10.50
2022-11-24T11:01:27.624Z,10.50
2022-11-24T11:03:58.031Z,10.60
2022-11-24T11:06:27.566Z,10.70
2022-11-24T11:09:19.462Z,10.90
2022-11-24T11:11:49.081Z,11.10
2022-11-24T11:14:32.942Z,11.20
2022-11-24T11:17:01.498Z,11.20
2022-11-24T11:19:54.199Z,11.20
2022-11-24T11:22:28.296Z,11.30
2022-11-24T11:25:08.990Z,11.20
2022-11-24T11:27:37.109Z,11.20
2022-11-24T11:36:13.202Z,11.30
2022-11-24T11:38:42.520Z,11.40
2022-11-24T11:41:31.532Z,11.40
2022-11-24T11:44:15.687Z,11.50
2022-11-24T11:46:46.578Z,11.30
2022-11-24T11:49:15.072Z,11.30
2022-11-24T11:51:57.143Z,11.20
2022-11-24T11:54:38.160Z,11.10
2022-11-24T11:57:12.249Z,11.00
2022-11-24T12:00:05.180Z,10.90
2022-11-24T12:02:56.985Z,10.80
2022-11-24T12:05:32.215Z,10.80
2022-11-24T12:08:20.674Z,10.70
2022-11-24T12:10:56.558Z,10.60
2022-11-24T12:13:43.951Z,10.60
2022-11-24T12:16:22.679Z,10.50
2022-11-24T12:19:06.472Z,10.50
2022-11-24T12:21:41.672Z,10.50
2022-11-24T12:24:14.269Z,10.40
2022-11-24T12:26:47.570Z,10.40
2022-11-24T12:29:52.814Z,10.40
2022-11-24T12:32:36.574Z,10.50
2022-11-24T12:35:16.312Z,10.50
2022-11-24T12:37:56.275Z,10.60
2022-11-24T12:40:39.762Z,10.70
2022-11-24T12:43:19.899Z,10.80
2022-11-24T12:45:59.092Z,10.90
2022-11-24T12:48:49.868Z,11.00
2022-11-24T12:51:21.330Z,11.10
2022-11-24T12:53:51.903Z,11.10
2022-11-24T12:56:27.997Z,11.30
2022-11-24T12:59:02.996Z,11.30
2022-11-24T13:01:38.531Z,11.40
2022-11-24T13:04:13.913Z,11.40
2022-11-24T13:06:52.021Z,11.50
2022-11-24T13:09:20.313Z,11.50
2022-11-24T13:11:49.170Z,11.40
2022-11-24T13:14:20.449Z,11.30
2022-11-24T13:17:21.668Z,11.20
2022-11-24T13:19:43.920Z,11.10
2022-11-24T13:22:19.692Z,11.00
2022-11-24T13:25:04.475Z,11.00
2022-11-24T13:27:52.977Z,10.90
2022-11-24T13:30:55.711Z,10.90
2022-11-24T13:33:35.187Z,11.00
2022-11-24T13:36:54.277Z,11.00
2022-11-24T13:39:47.474Z,11.10
2022-11-24T13:42:42.679Z,11.20
2022-11-24T13:45:31.232Z,11.20
2022-11-24T13:48:01.000Z,11.20
2022-11-24T13:51:06.714Z,11.30
2022-11-24T13:53:38.044Z,11.30
2022-11-24T13:56:35.106Z,11.20
2022-11-24T13:59:17.090Z,11.20
2022-11-24T14:01:46.914Z,11.20
2022-11-24T14:07:08.161Z,11.20
